createdAt,value
2016-06-13T00:00:46.750Z,14.48
2016-06-13T00:01:46.753Z,14.37
2016-06-13T00:02:46.755Z,14.44
2016-06-13T00:03:46.758Z,14.4
2016-06-13T00:04:46.762Z,14.43
2016-06-13T00:05:46.765Z,14.37
2016-06-13T00:06:46.753Z,14.37
2016-06-13T00:07:46.770Z,14.37
2016-06-13T00:08:46.774Z,14.37
2016-06-13T00:09:46.762Z,14.38
2016-06-13T00:10:47.327Z,14.36
2016-06-13T00:11:47.424Z,14.4
2016-06-13T00:12:46.772Z,14.4
2016-06-13T00:13:46.774Z,14.38
2016-06-13T00:14:46.777Z,14.33
2016-06-13T00:15:46.811Z,14.36
2016-06-13T00:16:47.034Z,14.36
2016-06-13T00:17:46.771Z,14.36
2016-06-13T00:18:46.789Z,14.36
2016-06-13T00:19:46.777Z,14.36
2016-06-13T00:20:46.624Z,14.37
2016-06-13T00:21:46.783Z,14.31
2016-06-13T00:22:46.989Z,14.37
2016-06-13T00:23:46.634Z,14.31
2016-06-13T00:24:46.792Z,14.36
2016-06-13T00:25:47.186Z,14.41
2016-06-13T00:26:47.408Z,14.34
2016-06-13T00:27:46.786Z,14.37
2016-06-13T00:28:46.790Z,14.34
2016-06-13T00:29:46.792Z,14.26
2016-06-13T00:30:46.810Z,14.28
2016-06-13T00:31:46.799Z,14.38
2016-06-13T00:32:46.802Z,14.4
2016-06-13T00:33:46.789Z,14.23
2016-06-13T00:34:46.808Z,14.25
2016-06-13T00:35:46.811Z,14.28
2016-06-13T00:36:46.814Z,14.26
2016-06-13T00:37:46.801Z,14.28
2016-06-13T00:38:46.804Z,14.28
2016-06-13T00:39:46.792Z,14.28
2016-06-13T00:40:47.357Z,14.36
2016-06-13T00:41:47.079Z,14.26
2016-06-13T00:42:46.801Z,14.43
2016-06-13T00:43:46.820Z,14.3
2016-06-13T00:44:46.822Z,14.33
2016-06-13T00:45:46.810Z,14.37
2016-06-13T00:46:46.812Z,14.34
2016-06-13T00:47:46.816Z,14.36
2016-06-13T00:48:46.819Z,14.34
2016-06-13T00:49:46.822Z,14.37
2016-06-13T00:50:46.669Z,14.36
2016-06-13T00:51:46.828Z,14.36
2016-06-13T00:52:46.659Z,14.34
2016-06-13T00:53:46.820Z,14.36
2016-06-13T00:54:46.822Z,14.31
2016-06-13T00:55:47.060Z,14.3
2016-06-13T00:56:46.829Z,14.38
2016-06-13T00:57:46.832Z,14.23
2016-06-13T00:58:46.819Z,14.28
2016-06-13T00:59:46.822Z,14.28
2016-06-13T01:00:46.825Z,14.28
2016-06-13T01:01:46.828Z,14.28
2016-06-13T01:02:46.831Z,14.28
2016-06-13T01:03:46.834Z,14.36
2016-06-13T01:04:46.838Z,14.37
2016-06-13T01:05:46.840Z,14.44
2016-06-13T01:06:46.827Z,14.28
2016-06-13T01:07:46.847Z,14.3
2016-06-13T01:08:47.099Z,14.28
2016-06-13T01:09:46.836Z,14.33
2016-06-13T01:10:47.136Z,14.33
2016-06-13T01:11:46.781Z,14.34
2016-06-13T01:12:46.768Z,14.3
2016-06-13T01:13:46.848Z,14.31
2016-06-13T01:14:46.743Z,14.22
2016-06-13T01:15:46.543Z,14.34
2016-06-13T01:16:46.843Z,14.3
2016-06-13T01:17:46.690Z,14.36
2016-06-13T01:18:46.708Z,14.23
2016-06-13T01:19:46.852Z,14.33
2016-06-13T01:20:46.855Z,14.25
2016-06-13T01:21:46.859Z,14.34
2016-06-13T01:22:46.846Z,14.34
2016-06-13T01:23:46.848Z,14.26
2016-06-13T01:24:46.851Z,14.3
2016-06-13T01:25:47.385Z,14.38
2016-06-13T01:26:46.936Z,14.36
2016-06-13T01:27:46.861Z,14.31
2016-06-13T01:28:46.864Z,14.33
2016-06-13T01:29:46.867Z,14.36
2016-06-13T01:30:46.855Z,14.4
2016-06-13T01:31:46.858Z,14.38
2016-06-13T01:32:46.861Z,14.44
2016-06-13T01:33:46.865Z,14.4
2016-06-13T01:34:46.867Z,14.4
2016-06-13T01:35:46.870Z,14.36
2016-06-13T01:36:46.874Z,14.41
2016-06-13T01:37:46.877Z,14.38
2016-06-13T01:38:46.895Z,14.34
2016-06-13T01:39:46.866Z,14.38
2016-06-13T01:40:46.886Z,14.34
2016-06-13T01:41:47.154Z,14.34
2016-06-13T01:42:46.876Z,14.37
2016-06-13T01:43:46.879Z,14.36
2016-06-13T01:44:46.883Z,14.36
2016-06-13T01:45:46.885Z,14.38
2016-06-13T01:46:46.904Z,14.37
2016-06-13T01:47:46.875Z,14.33
2016-06-13T01:48:46.878Z,14.33
2016-06-13T01:49:46.882Z,14.28
2016-06-13T01:50:46.884Z,14.34
2016-06-13T01:51:46.887Z,14.3
2016-06-13T01:52:46.890Z,14.26
2016-06-13T01:53:46.879Z,14.34
2016-06-13T01:54:46.896Z,14.3
2016-06-13T01:55:47.119Z,14.26
2016-06-13T01:56:46.903Z,14.36
2016-06-13T01:57:46.906Z,14.28
2016-06-13T01:58:46.894Z,14.38
2016-06-13T01:59:46.897Z,14.36
2016-06-13T02:00:46.901Z,14.37
2016-06-13T02:01:46.887Z,14.3
2016-06-13T02:02:46.906Z,14.31
2016-06-13T02:03:46.894Z,14.36
2016-06-13T02:04:46.896Z,14.36
2016-06-13T02:05:46.900Z,14.3
2016-06-13T02:06:46.747Z,14.37
2016-06-13T02:07:46.905Z,14.34
2016-06-13T02:08:46.909Z,14.3
2016-06-13T02:09:46.896Z,14.26
2016-06-13T02:10:46.931Z,14.28
2016-06-13T02:11:47.356Z,14.34
2016-06-13T02:12:46.905Z,14.37
2016-06-13T02:13:46.908Z,14.33
2016-06-13T02:14:46.912Z,14.3
2016-06-13T02:15:46.914Z,14.3
2016-06-13T02:16:46.917Z,14.26
2016-06-13T02:17:46.905Z,14.28
2016-06-13T02:18:46.924Z,14.28
2016-06-13T02:19:46.912Z,14.25
2016-06-13T02:20:46.915Z,14.28
2016-06-13T02:21:46.918Z,14.25
2016-06-13T02:22:46.765Z,14.28
2016-06-13T02:23:46.924Z,14.26
2016-06-13T02:24:46.911Z,14.26
2016-06-13T02:25:47.680Z,14.3
2016-06-13T02:26:47.386Z,14.25
2016-06-13T02:27:46.764Z,14.31
2016-06-13T02:28:46.924Z,14.38
2016-06-13T02:29:46.926Z,14.31
2016-06-13T02:30:46.930Z,14.28
2016-06-13T02:31:46.918Z,14.3
2016-06-13T02:32:46.936Z,14.25
2016-06-13T02:33:46.923Z,14.36
2016-06-13T02:34:46.927Z,14.36
2016-06-13T02:35:46.930Z,14.38
2016-06-13T02:36:46.933Z,14.28
2016-06-13T02:37:46.936Z,14.36
2016-06-13T02:38:46.939Z,14.36
2016-06-13T02:39:46.926Z,14.37
2016-06-13T02:40:46.929Z,14.37
2016-06-13T02:41:47.229Z,14.37
2016-06-13T02:42:46.936Z,14.33
2016-06-13T02:43:46.939Z,14.36
2016-06-13T02:44:46.957Z,14.37
2016-06-13T02:45:46.929Z,14.41
2016-06-13T02:46:46.948Z,14.34
2016-06-13T02:47:46.951Z,14.4
2016-06-13T02:48:46.953Z,14.34
2016-06-13T02:49:46.940Z,14.37
2016-06-13T02:50:46.944Z,14.44
2016-06-13T02:51:46.947Z,14.48
2016-06-13T02:52:46.950Z,14.43
2016-06-13T02:53:46.953Z,14.45
2016-06-13T02:54:46.957Z,14.44
2016-06-13T02:55:46.944Z,14.48
2016-06-13T02:56:47.931Z,14.41
2016-06-13T02:57:46.951Z,14.48
2016-06-13T02:58:46.954Z,14.4
2016-06-13T02:59:46.957Z,14.4
2016-06-13T03:00:46.959Z,14.43
2016-06-13T03:01:46.947Z,14.4
2016-06-13T03:02:46.966Z,14.43
2016-06-13T03:03:46.953Z,14.37
2016-06-13T03:04:46.972Z,14.38
2016-06-13T03:05:46.803Z,14.34
2016-06-13T03:06:46.978Z,14.36
2016-06-13T03:07:46.966Z,14.43
2016-06-13T03:08:46.968Z,14.37
2016-06-13T03:09:46.971Z,14.31
2016-06-13T03:10:46.959Z,14.37
2016-06-13T03:11:48.041Z,14.37
2016-06-13T03:12:46.980Z,14.37
2016-06-13T03:13:46.968Z,14.3
2016-06-13T03:14:46.971Z,14.25
2016-06-13T03:15:46.973Z,14.37
2016-06-13T03:16:46.977Z,14.38
2016-06-13T03:17:46.980Z,14.25
2016-06-13T03:18:46.968Z,14.33
2016-06-13T03:19:46.971Z,14.33
2016-06-13T03:20:46.975Z,14.31
2016-06-13T03:21:46.977Z,14.31
2016-06-13T03:22:46.980Z,14.31
2016-06-13T03:23:46.983Z,14.3
2016-06-13T03:24:46.971Z,14.36
2016-06-13T03:25:46.833Z,14.34
2016-06-13T03:26:47.014Z,14.36
2016-06-13T03:27:47.042Z,14.3
2016-06-13T03:28:47.085Z,14.25
2016-06-13T03:29:47.129Z,14.26
2016-06-13T03:30:47.157Z,14.2
2016-06-13T03:31:47.187Z,14.19
2016-06-13T03:32:47.203Z,14.18
2016-06-13T03:33:47.221Z,14.15
2016-06-13T03:34:47.238Z,14.22
2016-06-13T03:35:47.256Z,14.2
2016-06-13T03:36:47.268Z,14.2
2016-06-13T03:37:47.276Z,14.15
2016-06-13T03:38:47.285Z,14.19
2016-06-13T03:39:47.277Z,14.2
2016-06-13T03:40:47.286Z,14.26
2016-06-13T03:41:47.151Z,14.33
2016-06-13T03:42:47.297Z,14.26
2016-06-13T03:43:47.302Z,14.36
2016-06-13T03:44:47.323Z,14.37
2016-06-13T03:45:47.312Z,14.4
2016-06-13T03:46:47.317Z,14.4
2016-06-13T03:47:47.149Z,14.43
2016-06-13T03:48:47.308Z,14.48
2016-06-13T03:49:47.312Z,14.34
2016-06-13T03:50:47.316Z,14.48
2016-06-13T03:51:47.320Z,14.49
2016-06-13T03:52:47.322Z,14.49
2016-06-13T03:53:47.326Z,14.49
2016-06-13T03:54:47.328Z,14.56
2016-06-13T03:55:47.176Z,14.56
2016-06-13T03:56:47.570Z,14.53
2016-06-13T03:57:47.323Z,14.59
2016-06-13T03:58:47.326Z,14.66
2016-06-13T03:59:47.329Z,14.74
2016-06-13T04:00:47.332Z,14.73
2016-06-13T04:01:47.319Z,14.82
2016-06-13T04:02:47.323Z,14.89
2016-06-13T04:03:47.325Z,14.97
2016-06-13T04:04:47.329Z,15.07
2016-06-13T04:05:47.331Z,15.14
2016-06-13T04:06:47.179Z,15.25
2016-06-13T04:07:47.338Z,15.35
2016-06-13T04:08:47.340Z,15.44
2016-06-13T04:09:47.328Z,15.45
2016-06-13T04:10:47.347Z,15.47
2016-06-13T04:11:47.209Z,15.63
2016-06-13T04:12:47.337Z,15.62
2016-06-13T04:13:47.340Z,15.65
2016-06-13T04:14:47.343Z,15.7
2016-06-13T04:15:47.347Z,15.76
2016-06-13T04:16:47.349Z,15.73
2016-06-13T04:17:47.352Z,15.75
2016-06-13T04:18:47.341Z,15.75
2016-06-13T04:19:47.344Z,15.78
2016-06-13T04:20:47.346Z,15.72
2016-06-13T04:21:47.364Z,15.76
2016-06-13T04:22:47.352Z,15.67
2016-06-13T04:23:47.356Z,15.66
2016-06-13T04:24:47.359Z,15.76
2016-06-13T04:25:47.345Z,15.6
2016-06-13T04:26:47.630Z,15.59
2016-06-13T04:27:47.352Z,15.59
2016-06-13T04:28:47.355Z,15.45
2016-06-13T04:29:47.358Z,15.45
2016-06-13T04:30:47.378Z,15.47
2016-06-13T04:31:47.364Z,15.35
2016-06-13T04:32:47.367Z,15.44
2016-06-13T04:33:47.355Z,15.37
2016-06-13T04:34:47.358Z,15.43
2016-06-13T04:35:47.362Z,15.37
2016-06-13T04:36:47.221Z,15.36
2016-06-13T04:37:47.364Z,15.44
2016-06-13T04:38:47.368Z,15.37
2016-06-13T04:39:47.371Z,15.37
2016-06-13T04:40:47.358Z,15.37
2016-06-13T04:41:47.377Z,15.41
2016-06-13T04:42:47.380Z,15.37
2016-06-13T04:43:47.367Z,15.36
2016-06-13T04:44:47.371Z,15.39
2016-06-13T04:45:47.373Z,15.41
2016-06-13T04:46:47.376Z,15.43
2016-06-13T04:47:47.380Z,15.37
2016-06-13T04:48:47.382Z,15.45
2016-06-13T04:49:47.213Z,15.45
2016-06-13T04:50:47.216Z,15.5
2016-06-13T04:51:47.392Z,15.48
2016-06-13T04:52:47.395Z,15.55
2016-06-13T04:53:47.382Z,15.52
2016-06-13T04:54:47.385Z,15.6
2016-06-13T04:55:47.388Z,15.62
2016-06-13T04:56:47.391Z,15.6
2016-06-13T04:57:47.098Z,15.69
2016-06-13T04:58:47.398Z,15.73
2016-06-13T04:59:47.385Z,15.69
2016-06-13T05:00:47.388Z,15.65
2016-06-13T05:01:47.392Z,15.73
2016-06-13T05:02:47.395Z,15.7
2016-06-13T05:03:47.398Z,15.59
2016-06-13T05:04:47.244Z,15.62
2016-06-13T05:05:47.403Z,15.69
2016-06-13T05:06:47.391Z,15.65
2016-06-13T05:07:47.410Z,15.73
2016-06-13T05:08:47.397Z,15.72
2016-06-13T05:09:47.400Z,15.69
2016-06-13T05:10:47.403Z,15.66
2016-06-13T05:11:47.562Z,15.62
2016-06-13T05:12:47.487Z,15.6
2016-06-13T05:13:47.412Z,15.59
2016-06-13T05:14:47.400Z,15.57
2016-06-13T05:15:47.403Z,15.54
2016-06-13T05:16:47.405Z,15.5
2016-06-13T05:17:47.409Z,15.54
2016-06-13T05:18:47.412Z,15.52
2016-06-13T05:19:47.415Z,15.55
2016-06-13T05:20:47.418Z,15.51
2016-06-13T05:21:47.421Z,15.51
2016-06-13T05:22:47.409Z,15.44
2016-06-13T05:23:47.412Z,15.36
2016-06-13T05:24:47.430Z,15.41
2016-06-13T05:25:47.418Z,15.43
2016-06-13T05:26:47.672Z,15.37
2016-06-13T05:27:47.425Z,15.32
2016-06-13T05:28:47.427Z,15.3
2016-06-13T05:29:47.430Z,15.25
2016-06-13T05:30:47.418Z,15.26
2016-06-13T05:31:47.437Z,15.22
2016-06-13T05:32:47.424Z,15.25
2016-06-13T05:33:47.427Z,15.25
2016-06-13T05:34:47.430Z,15.23
2016-06-13T05:35:47.433Z,15.18
2016-06-13T05:36:47.436Z,15.3
2016-06-13T05:37:47.439Z,15.26
2016-06-13T05:38:47.442Z,15.36
2016-06-13T05:39:47.445Z,15.36
2016-06-13T05:40:47.433Z,15.32
2016-06-13T05:41:47.295Z,15.35
2016-06-13T05:42:47.940Z,15.29
2016-06-13T05:43:47.443Z,15.39
2016-06-13T05:44:47.446Z,15.48
2016-06-13T05:45:47.449Z,15.54
2016-06-13T05:46:47.452Z,15.52
2016-06-13T05:47:47.439Z,15.59
2016-06-13T05:48:47.458Z,15.59
2016-06-13T05:49:47.461Z,15.62
2016-06-13T05:50:47.448Z,15.73
2016-06-13T05:51:47.451Z,15.75
2016-06-13T05:52:47.454Z,15.78
2016-06-13T05:53:47.473Z,15.76
2016-06-13T05:54:47.461Z,15.8
2016-06-13T05:55:47.464Z,15.81
2016-06-13T05:56:47.310Z,15.85
2016-06-13T05:57:47.970Z,15.87
2016-06-13T05:58:47.457Z,15.87
2016-06-13T05:59:47.460Z,15.84
2016-06-13T06:00:47.463Z,15.84
2016-06-13T06:01:47.465Z,15.92
2016-06-13T06:02:47.454Z,16
2016-06-13T06:03:47.472Z,16.05
2016-06-13T06:04:47.460Z,16.1
2016-06-13T06:05:47.478Z,16.21
2016-06-13T06:06:47.467Z,16.31
2016-06-13T06:07:47.469Z,16.4
2016-06-13T06:08:47.472Z,16.44
2016-06-13T06:09:47.475Z,16.51
2016-06-13T06:10:47.479Z,16.51
2016-06-13T06:11:47.482Z,16.61
2016-06-13T06:12:48.109Z,16.65
2016-06-13T06:13:47.472Z,16.76
2016-06-13T06:14:47.491Z,16.77
2016-06-13T06:15:47.478Z,16.79
2016-06-13T06:16:47.481Z,16.73
2016-06-13T06:17:47.484Z,16.74
2016-06-13T06:18:47.487Z,16.91
2016-06-13T06:19:47.490Z,16.92
2016-06-13T06:20:47.477Z,16.87
2016-06-13T06:21:47.496Z,16.92
2016-06-13T06:22:47.483Z,16.91
2016-06-13T06:23:47.487Z,16.94
2016-06-13T06:24:47.522Z,16.94
2016-06-13T06:25:47.492Z,16.95
2016-06-13T06:26:47.496Z,17.1
2016-06-13T06:27:48.921Z,17.09
2016-06-13T06:28:47.502Z,17.2
2016-06-13T06:29:47.505Z,17.1
2016-06-13T06:30:47.493Z,17.13
2016-06-13T06:31:47.496Z,17.24
2016-06-13T06:32:47.358Z,17.31
2016-06-13T06:33:47.502Z,17.39
2016-06-13T06:34:47.506Z,17.32
2016-06-13T06:35:47.509Z,17.42
2016-06-13T06:36:47.512Z,17.63
2016-06-13T06:37:47.514Z,17.6
2016-06-13T06:38:47.517Z,17.6
2016-06-13T06:39:47.505Z,17.71
2016-06-13T06:40:47.508Z,17.82
2016-06-13T06:41:47.527Z,17.82
2016-06-13T06:42:47.952Z,17.82
2016-06-13T06:43:47.517Z,17.95
2016-06-13T06:44:47.520Z,17.87
2016-06-13T06:45:47.523Z,17.98
2016-06-13T06:46:47.526Z,18
2016-06-13T06:47:47.546Z,17.94
2016-06-13T06:48:47.532Z,17.93
2016-06-13T06:49:47.552Z,17.91
2016-06-13T06:50:47.382Z,17.86
2016-06-13T06:51:47.542Z,17.84
2016-06-13T06:52:47.545Z,17.79
2016-06-13T06:53:47.533Z,17.84
2016-06-13T06:54:47.536Z,17.8
2016-06-13T06:55:47.538Z,17.84
2016-06-13T06:56:47.542Z,17.8
2016-06-13T06:57:47.951Z,17.76
2016-06-13T06:58:47.548Z,17.79
2016-06-13T06:59:47.551Z,17.84
2016-06-13T07:00:47.538Z,17.86
2016-06-13T07:01:47.542Z,17.97
2016-06-13T07:02:47.560Z,18
2016-06-13T07:03:47.563Z,18.05
2016-06-13T07:04:47.551Z,18.16
2016-06-13T07:05:47.554Z,18.12
2016-06-13T07:06:47.588Z,18.18
2016-06-13T07:07:47.576Z,18.16
2016-06-13T07:08:47.563Z,18.18
2016-06-13T07:09:47.566Z,18.28
2016-06-13T07:10:47.413Z,18.31
2016-06-13T07:11:47.572Z,18.24
2016-06-13T07:12:47.591Z,18.31
2016-06-13T07:13:47.625Z,18.42
2016-06-13T07:14:47.582Z,18.42
2016-06-13T07:15:47.584Z,18.51
2016-06-13T07:16:47.572Z,18.52
2016-06-13T07:17:47.591Z,18.52
2016-06-13T07:18:47.578Z,18.52
2016-06-13T07:19:47.597Z,18.52
2016-06-13T07:20:47.583Z,18.51
2016-06-13T07:21:47.603Z,18.58
2016-06-13T07:22:47.590Z,18.58
2016-06-13T07:23:47.593Z,18.6
2016-06-13T07:24:47.440Z,18.57
2016-06-13T07:25:47.600Z,18.7
2016-06-13T07:26:47.602Z,18.68
2016-06-13T07:27:47.605Z,18.63
2016-06-13T07:28:47.609Z,18.73
2016-06-13T07:29:47.612Z,18.83
2016-06-13T07:30:47.614Z,18.86
2016-06-13T07:31:47.617Z,18.81
2016-06-13T07:32:47.605Z,19
2016-06-13T07:33:47.609Z,19
2016-06-13T07:34:47.611Z,19.15
2016-06-13T07:35:47.615Z,19.19
2016-06-13T07:36:47.680Z,19.15
2016-06-13T07:37:47.621Z,18.97
2016-06-13T07:38:47.624Z,18.94
2016-06-13T07:39:47.642Z,18.89
2016-06-13T07:40:47.630Z,18.89
2016-06-13T07:41:47.634Z,18.94
2016-06-13T07:42:47.995Z,19.01
2016-06-13T07:43:47.640Z,18.85
2016-06-13T07:44:47.658Z,18.67
2016-06-13T07:45:47.629Z,18.63
2016-06-13T07:46:47.648Z,18.53
2016-06-13T07:47:47.745Z,18.45
2016-06-13T07:48:47.655Z,18.28
2016-06-13T07:49:47.642Z,18.12
2016-06-13T07:50:47.489Z,17.98
2016-06-13T07:51:47.648Z,17.88
2016-06-13T07:52:47.651Z,17.73
2016-06-13T07:53:47.655Z,17.66
2016-06-13T07:54:47.501Z,17.63
2016-06-13T07:55:47.504Z,17.46
2016-06-13T07:56:47.664Z,17.46
2016-06-13T07:57:48.058Z,17.35
2016-06-13T07:58:47.669Z,17.41
2016-06-13T07:59:47.673Z,17.27
2016-06-13T08:00:47.660Z,17.16
2016-06-13T08:01:47.679Z,17.13
2016-06-13T08:02:47.666Z,17.2
2016-06-13T08:03:47.685Z,17.31
2016-06-13T08:04:47.672Z,17.35
2016-06-13T08:05:47.675Z,17.37
2016-06-13T08:06:47.678Z,17.32
2016-06-13T08:07:47.525Z,17.47
2016-06-13T08:08:47.684Z,17.47
2016-06-13T08:09:47.688Z,17.52
2016-06-13T08:10:47.675Z,17.66
2016-06-13T08:11:47.693Z,17.56
2016-06-13T08:12:48.307Z,17.65
2016-06-13T08:13:47.700Z,17.73
2016-06-13T08:14:47.702Z,17.82
2016-06-13T08:15:47.691Z,17.9
2016-06-13T08:16:47.708Z,17.88
2016-06-13T08:17:47.697Z,17.94
2016-06-13T08:18:47.700Z,18
2016-06-13T08:19:47.703Z,17.95
2016-06-13T08:20:47.721Z,17.88
2016-06-13T08:21:47.710Z,17.91
2016-06-13T08:22:47.712Z,18.02
2016-06-13T08:23:47.716Z,17.95
2016-06-13T08:24:47.718Z,17.91
2016-06-13T08:25:47.721Z,18
2016-06-13T08:26:47.709Z,18.03
2016-06-13T08:27:48.306Z,17.98
2016-06-13T08:28:47.714Z,17.98
2016-06-13T08:29:47.718Z,18.08
2016-06-13T08:30:47.721Z,18.09
2016-06-13T08:31:47.724Z,18.19
2016-06-13T08:32:47.743Z,18.31
2016-06-13T08:33:47.730Z,18.28
2016-06-13T08:34:47.733Z,18.41
2016-06-13T08:35:47.736Z,18.33
2016-06-13T08:36:47.740Z,18.43
2016-06-13T08:37:47.743Z,18.37
2016-06-13T08:38:47.746Z,18.45
2016-06-13T08:39:47.904Z,18.55
2016-06-13T08:40:47.752Z,18.52
2016-06-13T08:41:47.771Z,18.45
2016-06-13T08:42:48.523Z,18.37
2016-06-13T08:43:47.605Z,18.33
2016-06-13T08:44:47.764Z,18.24
2016-06-13T08:45:47.767Z,18.27
2016-06-13T08:46:47.770Z,18.16
2016-06-13T08:47:47.773Z,18.15
2016-06-13T08:48:47.776Z,18.09
2016-06-13T08:49:47.780Z,18
2016-06-13T08:50:47.767Z,18.03
2016-06-13T08:51:47.770Z,18.06
2016-06-13T08:52:47.774Z,18.05
2016-06-13T08:53:47.777Z,18.03
2016-06-13T08:54:47.794Z,18.03
2016-06-13T08:55:47.626Z,18.08
2016-06-13T08:56:47.786Z,18
2016-06-13T08:57:47.789Z,18.08
2016-06-13T08:58:48.151Z,18.08
2016-06-13T08:59:47.795Z,18.11
2016-06-13T09:00:47.782Z,18.16
2016-06-13T09:01:47.645Z,18.41
2016-06-13T09:02:47.804Z,18.67
2016-06-13T09:03:47.791Z,18.89
2016-06-13T09:04:47.810Z,19.39
2016-06-13T09:05:47.814Z,19.82
2016-06-13T09:06:47.800Z,20.19
2016-06-13T09:07:47.804Z,20.7
2016-06-13T09:08:47.807Z,21.08
2016-06-13T09:09:47.826Z,21.5
2016-06-13T09:10:47.844Z,21.59
2016-06-13T09:11:47.815Z,21.69
2016-06-13T09:12:47.819Z,21.75
2016-06-13T09:13:48.041Z,21.81
2016-06-13T09:14:47.825Z,21.68
2016-06-13T09:15:47.828Z,21.6
2016-06-13T09:16:47.832Z,21.41
2016-06-13T09:17:47.834Z,21.26
2016-06-13T09:18:47.837Z,21.23
2016-06-13T09:19:47.825Z,21.11
2016-06-13T09:20:47.844Z,20.9
2016-06-13T09:21:47.846Z,20.86
2016-06-13T09:22:47.850Z,20.74
2016-06-13T09:23:47.869Z,20.7
2016-06-13T09:24:47.699Z,20.56
2016-06-13T09:25:47.687Z,20.48
2016-06-13T09:26:47.862Z,20.3
2016-06-13T09:27:47.865Z,20.33
2016-06-13T09:28:47.868Z,20.34
2016-06-13T09:29:47.856Z,20.22
2016-06-13T09:30:47.874Z,20.27
2016-06-13T09:31:47.861Z,20.29
2016-06-13T09:32:47.865Z,20.24
2016-06-13T09:33:47.884Z,20.32
2016-06-13T09:34:47.871Z,20.34
2016-06-13T09:35:47.874Z,20.22
2016-06-13T09:36:47.892Z,20.22
2016-06-13T09:37:47.896Z,20.19
2016-06-13T09:38:47.883Z,20.21
2016-06-13T09:39:47.886Z,20.04
2016-06-13T09:40:47.905Z,20.15
2016-06-13T09:41:47.908Z,20
2016-06-13T09:42:47.911Z,20.02
2016-06-13T09:43:48.040Z,19.85
2016-06-13T09:44:47.902Z,19.82
2016-06-13T09:45:47.904Z,19.7
2016-06-13T09:46:47.907Z,19.7
2016-06-13T09:47:47.911Z,19.71
2016-06-13T09:48:47.914Z,19.64
2016-06-13T09:49:47.916Z,19.63
2016-06-13T09:50:47.936Z,19.59
2016-06-13T09:51:47.923Z,19.45
2016-06-13T09:52:47.911Z,19.48
2016-06-13T09:53:47.929Z,19.49
2016-06-13T09:54:47.932Z,19.41
2016-06-13T09:55:47.921Z,19.34
2016-06-13T09:56:47.938Z,19.38
2016-06-13T09:57:47.926Z,19.45
2016-06-13T09:58:48.273Z,19.39
2016-06-13T09:59:47.932Z,19.47
2016-06-13T10:00:47.935Z,19.52
2016-06-13T10:01:47.953Z,19.56
2016-06-13T10:02:47.957Z,19.71
2016-06-13T10:03:47.976Z,19.78
2016-06-13T10:04:47.978Z,19.77
2016-06-13T10:05:47.982Z,19.82
2016-06-13T10:06:47.985Z,19.94
2016-06-13T10:07:47.972Z,19.93
2016-06-13T10:08:47.975Z,19.78
2016-06-13T10:09:47.979Z,19.71
2016-06-13T10:10:47.841Z,19.79
2016-06-13T10:11:47.828Z,19.74
2016-06-13T10:12:48.426Z,19.71
2016-06-13T10:13:47.710Z,19.72
2016-06-13T10:14:47.993Z,19.71
2016-06-13T10:15:47.840Z,19.72
2016-06-13T10:16:48.000Z,19.75
2016-06-13T10:17:48.003Z,19.74
2016-06-13T10:18:48.022Z,19.7
2016-06-13T10:19:48.008Z,19.7
2016-06-13T10:20:48.028Z,19.71
2016-06-13T10:21:48.015Z,19.67
2016-06-13T10:22:48.018Z,19.81
2016-06-13T10:23:48.021Z,19.92
2016-06-13T10:24:48.010Z,20.11
2016-06-13T10:25:48.027Z,20.11
2016-06-13T10:26:47.874Z,20.12
2016-06-13T10:27:48.033Z,20.12
2016-06-13T10:28:48.240Z,20.18
2016-06-13T10:29:48.025Z,20.17
2016-06-13T10:30:48.042Z,20.19
2016-06-13T10:31:48.046Z,20.22
2016-06-13T10:32:48.034Z,20.18
2016-06-13T10:33:48.037Z,20.17
2016-06-13T10:34:48.040Z,19.93
2016-06-13T10:35:48.044Z,19.81
2016-06-13T10:36:48.046Z,19.77
2016-06-13T10:37:48.049Z,19.7
2016-06-13T10:38:48.052Z,19.59
2016-06-13T10:39:48.055Z,19.47
2016-06-13T10:40:48.058Z,19.26
2016-06-13T10:41:48.062Z,19.11
2016-06-13T10:42:48.065Z,19.04
2016-06-13T10:43:48.068Z,18.96
2016-06-13T10:44:48.070Z,18.89
2016-06-13T10:45:48.089Z,18.94
2016-06-13T10:46:48.092Z,19
2016-06-13T10:47:48.080Z,19.08
2016-06-13T10:48:48.083Z,19.04
2016-06-13T10:49:47.929Z,18.97
2016-06-13T10:50:48.089Z,19.12
2016-06-13T10:51:48.092Z,19.23
2016-06-13T10:52:48.095Z,19.35
2016-06-13T10:53:48.098Z,19.49
2016-06-13T10:54:48.101Z,19.52
2016-06-13T10:55:48.120Z,19.67
2016-06-13T10:56:48.108Z,19.93
2016-06-13T10:57:48.111Z,20
2016-06-13T10:58:48.114Z,20.24
2016-06-13T10:59:48.117Z,20.34
2016-06-13T11:00:48.135Z,20.49
2016-06-13T11:01:48.138Z,20.6
2016-06-13T11:02:48.126Z,20.71
2016-06-13T11:03:48.113Z,20.77
2016-06-13T11:04:48.116Z,20.9
2016-06-13T11:05:47.978Z,20.83
2016-06-13T11:06:48.139Z,20.86
2016-06-13T11:07:48.142Z,20.86
2016-06-13T11:08:48.145Z,20.89
2016-06-13T11:09:48.132Z,20.89
2016-06-13T11:10:48.151Z,20.9
2016-06-13T11:11:48.154Z,20.74
2016-06-13T11:12:48.141Z,20.78
2016-06-13T11:13:48.003Z,20.7
2016-06-13T11:14:48.147Z,20.68
2016-06-13T11:15:48.166Z,20.64
2016-06-13T11:16:48.169Z,20.83
2016-06-13T11:17:48.156Z,21.13
2016-06-13T11:18:48.159Z,21.59
2016-06-13T11:19:48.178Z,22
2016-06-13T11:20:48.182Z,22.33
2016-06-13T11:21:48.169Z,22.74
2016-06-13T11:22:48.188Z,23.04
2016-06-13T11:23:48.174Z,23.29
2016-06-13T11:24:48.194Z,23.44
2016-06-13T11:25:48.181Z,23.62
2016-06-13T11:26:48.184Z,23.67
2016-06-13T11:27:48.187Z,23.73
2016-06-13T11:28:48.190Z,23.73
2016-06-13T11:29:48.193Z,23.67
2016-06-13T11:30:48.305Z,23.73
2016-06-13T11:31:48.215Z,23.77
2016-06-13T11:32:48.218Z,23.74
2016-06-13T11:33:48.221Z,23.7
2016-06-13T11:34:48.209Z,23.73
2016-06-13T11:35:48.228Z,23.74
2016-06-13T11:36:48.231Z,23.77
2016-06-13T11:37:48.218Z,23.73
2016-06-13T11:38:48.237Z,23.7
2016-06-13T11:39:48.240Z,23.64
2016-06-13T11:40:48.243Z,23.66
2016-06-13T11:41:48.230Z,23.49
2016-06-13T11:42:48.233Z,23.48
2016-06-13T11:43:48.845Z,23.33
2016-06-13T11:44:48.256Z,23.16
2016-06-13T11:45:48.259Z,23.06
2016-06-13T11:46:48.261Z,22.96
2016-06-13T11:47:48.264Z,22.91
2016-06-13T11:48:48.267Z,22.65
2016-06-13T11:49:48.270Z,22.49
2016-06-13T11:50:48.273Z,22.38
2016-06-13T11:51:48.277Z,22.19
2016-06-13T11:52:48.108Z,22.07
2016-06-13T11:53:48.283Z,21.91
2016-06-13T11:54:48.286Z,21.68
2016-06-13T11:55:48.289Z,21.69
2016-06-13T11:56:48.292Z,21.59
2016-06-13T11:57:48.139Z,21.8
2016-06-13T11:58:48.329Z,21.91
2016-06-13T11:59:48.316Z,22.06
2016-06-13T12:00:48.304Z,22.21
2016-06-13T12:01:48.151Z,22.3
2016-06-13T12:02:48.311Z,22.56
2016-06-13T12:03:48.313Z,22.8
2016-06-13T12:04:48.317Z,23.16
2016-06-13T12:05:48.319Z,23.47
2016-06-13T12:06:48.322Z,23.73
2016-06-13T12:07:48.326Z,24.06
2016-06-13T12:08:48.329Z,24.38
2016-06-13T12:09:48.332Z,24.62
2016-06-13T12:10:48.335Z,24.85
2016-06-13T12:11:48.353Z,25.07
2016-06-13T12:12:48.356Z,25.24
2016-06-13T12:13:48.453Z,25.37
2016-06-13T12:14:48.847Z,25.61
2016-06-13T12:15:48.210Z,25.55
2016-06-13T12:16:48.353Z,25.58
2016-06-13T12:17:48.356Z,25.59
2016-06-13T12:18:48.360Z,25.63
2016-06-13T12:19:48.363Z,25.61
2016-06-13T12:20:48.381Z,25.49
2016-06-13T12:21:48.369Z,25.36
2016-06-13T12:22:48.372Z,25.24
2016-06-13T12:23:48.375Z,25.15
2016-06-13T12:24:48.378Z,25.14
2016-06-13T12:25:48.382Z,25.25
2016-06-13T12:26:48.384Z,25.26
2016-06-13T12:27:48.230Z,25.31
2016-06-13T12:28:48.859Z,25.36
2016-06-13T12:29:48.237Z,25.24
2016-06-13T12:30:48.397Z,24.96
2016-06-13T12:31:48.399Z,24.81
2016-06-13T12:32:48.418Z,24.56
2016-06-13T12:33:48.452Z,24.36
2016-06-13T12:34:48.481Z,24
2016-06-13T12:35:48.384Z,23.81
2016-06-13T12:36:48.583Z,23.59
2016-06-13T12:37:48.471Z,23.39
2016-06-13T12:38:48.650Z,23.11
2016-06-13T12:39:48.684Z,22.86
2016-06-13T12:40:48.686Z,22.62
2016-06-13T12:41:48.704Z,22.44
2016-06-13T12:42:48.738Z,22.28
2016-06-13T12:43:48.967Z,22.21
2016-06-13T12:44:48.725Z,22.12
2016-06-13T12:45:48.592Z,22.15
2016-06-13T12:46:48.756Z,22.18
2016-06-13T12:47:48.764Z,22.26
2016-06-13T12:48:48.770Z,22.16
2016-06-13T12:49:48.791Z,22.22
2016-06-13T12:50:48.780Z,22.33
2016-06-13T12:51:48.785Z,22.26
2016-06-13T12:52:48.790Z,22.19
2016-06-13T12:53:48.794Z,22.19
2016-06-13T12:54:48.798Z,22.23
2016-06-13T12:55:48.834Z,22.16
2016-06-13T12:56:48.821Z,22.08